Terminal Aerodrome Forecast
Issued by NWS Cleveland, OH

Home | Current Version | Previous Version | Graphics & Text | Print | Product List | Glossary Off
Versions: 1 2 3 4 5 6 7 8 9 10 11 12 13 14 15 16 17 18

632
FTUS41 KCLE 292323
TAFYNG
TAF
KYNG 292323Z 3000/3024 35007KT 3SM BR OVC006
     FM300600 06010KT 2SM BR OVC003
     FM301000 10009KT 4SM BR OVC003
     FM301400 15010KT 6SM HZ OVC003
     FM301600 17010G20KT P6SM BKN050
     FM301800 20010G20KT P6SM SCT250=

USA.gov is the U.S. government's official web portal to all federal, state and local government web resources and services.